createdAt,value
2019-04-26T00:01:35.576Z,25.53
2019-04-26T00:04:06.191Z,24.93
2019-04-26T00:06:37.103Z,26.23
2019-04-26T00:09:27.803Z,24.63
2019-04-26T00:12:23.567Z,24.90
2019-04-26T00:15:12.683Z,25.53
2019-04-26T00:18:01.931Z,23.67
2019-04-26T00:20:32.351Z,25.43
2019-04-26T00:23:03.282Z,26.53
2019-04-26T00:25:35.464Z,26.73
2019-04-26T00:28:05.851Z,25.43
2019-04-26T00:30:36.768Z,26.63
2019-04-26T00:33:07.843Z,26.90
2019-04-26T00:35:47.494Z,27.90
2019-04-26T00:38:13.226Z,27.77
2019-04-26T00:40:44.122Z,28.27
2019-04-26T00:43:16.314Z,26.00
2019-04-26T00:45:46.964Z,26.97
2019-04-26T00:48:19.012Z,27.00
2019-04-26T00:50:49.968Z,27.73
2019-04-26T00:53:21.776Z,26.20
2019-04-26T00:55:53.378Z,28.07
2019-04-26T00:58:25.039Z,26.30
2019-04-26T01:00:56.156Z,27.13
2019-04-26T01:03:26.527Z,26.37
2019-04-26T01:06:00.061Z,27.90
2019-04-26T01:08:30.988Z,27.10
2019-04-26T01:11:01.991Z,27.00
2019-04-26T01:13:33.119Z,27.57
2019-04-26T01:16:03.495Z,27.10
2019-04-26T01:18:36.544Z,27.40
2019-04-26T01:21:09.560Z,27.10
2019-04-26T01:23:42.783Z,27.87
2019-04-26T01:26:23.255Z,28.57
2019-04-26T01:28:56.307Z,27.10
2019-04-26T01:31:30.247Z,29.20
2019-04-26T01:34:00.621Z,28.33
2019-04-26T01:36:33.687Z,26.97
2019-04-26T01:39:19.663Z,29.20
2019-04-26T01:42:01.835Z,28.80
2019-04-26T01:45:03.387Z,28.93
2019-04-26T01:47:34.960Z,29.47
2019-04-26T01:50:07.022Z,30.67
2019-04-26T01:52:38.391Z,29.33
2019-04-26T01:55:09.731Z,29.57
2019-04-26T01:57:41.264Z,30.27
2019-04-26T02:00:33.095Z,30.10
2019-04-26T02:03:12.224Z,29.53
2019-04-26T02:05:42.615Z,31.63
2019-04-26T02:08:17.531Z,30.47
2019-04-26T02:10:48.067Z,30.40
2019-04-26T02:13:18.415Z,31.60
2019-04-26T02:15:49.631Z,30.07
2019-04-26T02:18:20.644Z,32.10
2019-04-26T02:21:18.687Z,31.10
2019-04-26T02:24:11.019Z,32.60
2019-04-26T02:26:43.992Z,32.20
2019-04-26T02:29:19.143Z,32.50
2019-04-26T02:31:57.584Z,32.97
2019-04-26T02:34:33.175Z,32.33
2019-04-26T02:37:06.558Z,30.97
2019-04-26T02:39:41.088Z,31.77
2019-04-26T02:42:20.379Z,31.20
2019-04-26T02:45:07.613Z,31.90
2019-04-26T02:47:57.504Z,30.50
2019-04-26T02:50:36.948Z,30.07
2019-04-26T02:53:22.920Z,29.10
2019-04-26T02:56:28.171Z,30.17
2019-04-26T02:59:40.832Z,29.80
2019-04-26T03:02:26.692Z,30.63
2019-04-26T03:05:01.734Z,30.57
2019-04-26T03:07:55.372Z,28.23
2019-04-26T03:10:36.181Z,28.70
2019-04-26T03:13:11.929Z,29.33
2019-04-26T03:16:15.828Z,29.80
2019-04-26T03:19:10.536Z,29.03
2019-04-26T03:21:47.464Z,29.13
2019-04-26T03:24:23.471Z,28.93
2019-04-26T03:27:39.222Z,29.23
2019-04-26T03:30:51.082Z,27.53
2019-04-26T03:34:22.826Z,26.97
2019-04-26T03:37:21.797Z,27.80
2019-04-26T03:40:06.316Z,26.27
2019-04-26T03:43:02.496Z,28.27
2019-04-26T03:46:03.890Z,25.07
2019-04-26T03:48:58.813Z,25.60
2019-04-26T03:51:44.948Z,24.20
2019-04-26T03:54:20.347Z,25.13
2019-04-26T03:57:13.048Z,24.47
2019-04-26T04:00:02.991Z,24.57
2019-04-26T04:02:57.824Z,23.77
2019-04-26T04:05:37.912Z,23.67
2019-04-26T04:08:13.443Z,25.90
2019-04-26T04:10:53.969Z,24.20
2019-04-26T04:13:50.480Z,25.33
2019-04-26T04:16:34.505Z,24.80
2019-04-26T04:19:10.059Z,25.10
2019-04-26T04:21:53.948Z,24.33
2019-04-26T04:24:29.253Z,25.47
2019-04-26T04:27:52.661Z,25.23
2019-04-26T04:31:04.018Z,23.90
2019-04-26T04:34:09.695Z,23.27
2019-04-26T04:36:45.869Z,24.27
2019-04-26T04:39:27.084Z,22.47
2019-04-26T04:42:22.192Z,23.07
2019-04-26T04:45:21.838Z,23.17
2019-04-26T04:48:29.294Z,22.13
2019-04-26T04:51:28.213Z,19.83
2019-04-26T04:54:22.511Z,20.10
2019-04-26T04:57:10.304Z,19.03
2019-04-26T04:59:51.017Z,17.80
2019-04-26T05:02:46.593Z,17.33
2019-04-26T05:05:49.044Z,17.55
2019-04-26T05:08:34.600Z,15.60
2019-04-26T05:11:16.234Z,14.83
2019-04-26T05:14:10.999Z,14.10
2019-04-26T05:17:22.755Z,15.55
2019-04-26T05:20:26.651Z,13.95
2019-04-26T05:24:00.520Z,14.47
2019-04-26T05:27:17.979Z,13.80
2019-04-26T05:30:38.861Z,15.47
2019-04-26T05:34:11.417Z,15.08
2019-04-26T05:37:25.449Z,16.45
2019-04-26T05:40:15.967Z,16.55
2019-04-26T05:43:24.775Z,17.23
2019-04-26T05:46:23.331Z,16.90
2019-04-26T05:49:37.142Z,15.60
2019-04-26T05:52:42.312Z,16.12
2019-04-26T05:55:45.387Z,14.70
2019-04-26T05:58:40.165Z,17.25
2019-04-26T06:02:15.779Z,16.02
2019-04-26T06:05:20.021Z,14.00
2019-04-26T06:08:30.795Z,14.07
2019-04-26T06:11:09.747Z,14.45
2019-04-26T06:14:30.747Z,14.60
2019-04-26T06:17:28.253Z,14.13
2019-04-26T06:20:25.383Z,14.58
2019-04-26T06:23:07.239Z,14.70
2019-04-26T06:25:49.659Z,15.80
2019-04-26T06:28:50.839Z,15.08
2019-04-26T06:31:33.427Z,15.93
2019-04-26T06:34:25.216Z,14.40
2019-04-26T06:37:17.111Z,15.10
2019-04-26T06:40:03.171Z,16.85
2019-04-26T06:43:26.555Z,15.90
2019-04-26T06:46:32.491Z,14.87
2019-04-26T06:49:46.157Z,13.25
2019-04-26T06:52:21.128Z,11.18
2019-04-26T06:55:24.240Z,12.95
2019-04-26T06:58:14.323Z,11.28
2019-04-26T07:01:05.882Z,11.30
2019-04-26T07:04:04.867Z,10.95
2019-04-26T07:06:38.743Z,10.23
2019-04-26T07:09:12.084Z,9.75
2019-04-26T07:12:45.659Z,9.78
2019-04-26T07:15:34.502Z,8.33
2019-04-26T07:18:33.566Z,8.70
2019-04-26T07:21:23.426Z,9.68
2019-04-26T07:24:56.816Z,8.48
2019-04-26T07:28:03.845Z,8.55
2019-04-26T07:30:33.115Z,9.48
2019-04-26T07:33:33.743Z,8.45
2019-04-26T07:36:58.740Z,8.95
2019-04-26T07:40:39.065Z,8.50
2019-04-26T07:43:52.847Z,7.78
2019-04-26T07:46:45.857Z,8.55
2019-04-26T07:50:16.744Z,7.00
2019-04-26T07:53:04.640Z,7.37
2019-04-26T07:55:57.571Z,8.50
2019-04-26T07:59:18.256Z,7.42
2019-04-26T08:02:18.356Z,8.13
2019-04-26T08:04:58.022Z,7.35
2019-04-26T08:07:33.771Z,6.83
2019-04-26T08:10:14.671Z,6.72
2019-04-26T08:12:55.263Z,6.60
2019-04-26T08:15:49.600Z,6.97
2019-04-26T08:18:32.112Z,6.72
2019-04-26T08:21:13.816Z,6.72
2019-04-26T08:23:57.796Z,9.00
2019-04-26T08:26:32.689Z,6.67
2019-04-26T08:29:06.892Z,6.17
2019-04-26T08:31:41.448Z,6.45
2019-04-26T08:34:20.660Z,6.50
2019-04-26T08:37:01.938Z,5.95
2019-04-26T08:39:44.909Z,6.00
2019-04-26T08:42:18.086Z,5.30
2019-04-26T08:44:56.352Z,5.80
2019-04-26T08:48:02.167Z,5.00
2019-04-26T08:50:42.231Z,6.10
2019-04-26T08:53:12.670Z,5.83
2019-04-26T08:55:46.960Z,6.20
2019-04-26T08:58:21.772Z,5.65
2019-04-26T09:01:15.560Z,6.83
2019-04-26T09:04:12.083Z,6.25
2019-04-26T09:07:05.227Z,9.57
2019-04-26T09:09:39.651Z,6.87
2019-04-26T09:12:22.540Z,5.92
2019-04-26T09:14:49.851Z,5.97
2019-04-26T09:17:21.359Z,7.43
2019-04-26T09:19:53.167Z,5.78
2019-04-26T09:22:36.355Z,6.70
2019-04-26T09:25:14.267Z,6.90
2019-04-26T09:28:11.308Z,7.33
2019-04-26T09:31:00.395Z,6.90
2019-04-26T09:33:44.731Z,6.43
2019-04-26T09:36:18.138Z,6.67
2019-04-26T09:38:48.619Z,5.87
2019-04-26T09:41:21.255Z,6.55
2019-04-26T09:44:00.867Z,6.30
2019-04-26T09:46:52.932Z,12.80
2019-04-26T09:49:29.069Z,6.50
2019-04-26T09:52:00.991Z,6.90
2019-04-26T09:54:32.847Z,10.15
2019-04-26T09:57:04.691Z,6.15
2019-04-26T09:59:36.432Z,8.10
2019-04-26T10:02:10.128Z,6.10
2019-04-26T10:04:42.030Z,6.08
2019-04-26T10:07:13.535Z,5.17
2019-04-26T10:09:44.305Z,5.47
2019-04-26T10:12:31.035Z,5.37
2019-04-26T10:15:26.765Z,6.73
2019-04-26T10:17:57.987Z,5.50
2019-04-26T10:20:29.513Z,4.80
2019-04-26T10:23:00.310Z,5.13
2019-04-26T10:28:18.336Z,5.03
2019-04-26T10:30:50.255Z,4.80
2019-04-26T10:33:21.731Z,4.80
2019-04-26T10:35:56.625Z,4.57
2019-04-26T10:38:26.471Z,4.80
2019-04-26T10:40:57.231Z,5.10
2019-04-26T10:43:29.628Z,4.83
2019-04-26T10:46:01.155Z,5.43
2019-04-26T10:48:32.680Z,5.00
2019-04-26T10:51:07.175Z,6.07
2019-04-26T10:54:10.346Z,4.97
2019-04-26T10:57:00.351Z,13.77
2019-04-26T10:59:34.971Z,4.87
2019-04-26T11:02:06.388Z,4.70
2019-04-26T11:04:41.397Z,4.70
2019-04-26T11:07:10.887Z,4.33
2019-04-26T11:09:42.499Z,4.77
2019-04-26T11:12:15.927Z,4.20
2019-04-26T11:14:47.445Z,4.30
2019-04-26T11:17:18.869Z,6.33
2019-04-26T11:19:50.515Z,4.83
2019-04-26T11:22:28.882Z,5.03
2019-04-26T11:24:55.375Z,5.00
2019-04-26T11:27:26.839Z,4.33
2019-04-26T11:30:00.007Z,4.83
2019-04-26T11:32:33.121Z,5.07
2019-04-26T11:35:04.643Z,6.43
2019-04-26T11:37:36.143Z,5.00
2019-04-26T11:40:10.257Z,5.83
2019-04-26T11:42:41.902Z,7.93
2019-04-26T11:45:16.043Z,5.83
2019-04-26T11:47:55.787Z,4.53
2019-04-26T11:50:21.043Z,4.87
2019-04-26T11:52:52.639Z,5.27
2019-04-26T11:55:25.352Z,5.60
2019-04-26T11:57:57.171Z,5.33
2019-04-26T12:00:33.655Z,4.70
2019-04-26T12:03:05.267Z,4.10
2019-04-26T12:05:52.125Z,12.43
2019-04-26T12:08:33.679Z,4.87
2019-04-26T12:11:17.625Z,4.50
2019-04-26T12:13:37.963Z,5.50
2019-04-26T12:16:09.909Z,4.57
2019-04-26T12:18:44.207Z,5.67
2019-04-26T12:21:14.615Z,5.40
2019-04-26T12:23:45.405Z,4.57
2019-04-26T12:26:17.328Z,3.80
2019-04-26T12:28:49.379Z,3.97
2019-04-26T12:31:20.839Z,3.67
2019-04-26T12:33:51.623Z,4.27
2019-04-26T12:36:22.907Z,4.70
2019-04-26T12:38:58.015Z,5.63
2019-04-26T12:41:39.780Z,4.30
2019-04-26T12:44:03.347Z,6.93
2019-04-26T12:46:42.723Z,5.90
2019-04-26T12:49:14.204Z,4.63
2019-04-26T12:51:47.305Z,5.70
2019-04-26T12:54:19.241Z,4.60
2019-04-26T12:56:50.719Z,4.60
2019-04-26T12:59:25.992Z,6.50
2019-04-26T13:02:05.536Z,5.43
2019-04-26T13:04:36.009Z,4.90
2019-04-26T13:07:22.759Z,5.10
2019-04-26T13:10:01.071Z,6.73
2019-04-26T13:12:39.351Z,4.90
2019-04-26T13:15:51.817Z,4.20
2019-04-26T13:18:23.669Z,4.60
2019-04-26T13:20:58.500Z,12.07
2019-04-26T13:23:29.836Z,5.30
2019-04-26T13:26:02.292Z,6.93
2019-04-26T13:28:33.848Z,4.83
2019-04-26T13:31:04.715Z,4.43
2019-04-26T13:33:35.940Z,4.67
2019-04-26T13:36:07.515Z,6.77
2019-04-26T13:38:39.410Z,4.00
2019-04-26T13:41:12.368Z,4.27
2019-04-26T13:43:44.730Z,4.93
2019-04-26T13:46:44.172Z,5.53
2019-04-26T13:49:38.639Z,4.43
2019-04-26T13:52:10.059Z,4.43
2019-04-26T13:54:41.611Z,4.03
2019-04-26T13:57:13.067Z,8.20
2019-04-26T13:59:43.831Z,5.30
2019-04-26T14:02:16.579Z,4.10
2019-04-26T14:04:48.044Z,5.40
2019-04-26T14:07:20.189Z,5.87
2019-04-26T14:09:52.612Z,4.63
2019-04-26T14:12:25.150Z,4.47
2019-04-26T14:14:56.743Z,4.10
2019-04-26T14:17:29.779Z,4.20
2019-04-26T14:20:01.259Z,5.53
2019-04-26T14:22:40.896Z,5.00
2019-04-26T14:25:14.368Z,4.33
2019-04-26T14:27:51.562Z,4.43
2019-04-26T14:30:23.151Z,4.20
2019-04-26T14:32:57.385Z,3.93
2019-04-26T14:35:26.803Z,3.57
2019-04-26T14:37:57.996Z,3.20
2019-04-26T14:40:29.482Z,6.63
2019-04-26T14:43:06.802Z,8.30
2019-04-26T14:45:36.388Z,6.03
2019-04-26T14:48:06.267Z,3.80
2019-04-26T14:50:37.953Z,3.67
2019-04-26T14:53:08.679Z,3.40
2019-04-26T14:55:39.931Z,3.13
2019-04-26T14:58:12.273Z,10.10
2019-04-26T15:00:46.183Z,3.27
2019-04-26T15:03:26.928Z,3.33
2019-04-26T15:06:12.861Z,4.90
2019-04-26T15:08:47.495Z,4.00
2019-04-26T15:11:17.837Z,5.43
2019-04-26T15:13:49.260Z,7.23
2019-04-26T15:16:22.762Z,3.10
2019-04-26T15:18:53.103Z,3.07
2019-04-26T15:21:27.430Z,3.53
2019-04-26T15:23:59.309Z,3.17
2019-04-26T15:26:30.507Z,3.43
2019-04-26T15:29:02.531Z,4.07
2019-04-26T15:31:35.156Z,11.27
2019-04-26T15:34:07.131Z,8.53
2019-04-26T15:36:38.559Z,3.50
2019-04-26T15:39:26.871Z,4.22
2019-04-26T15:42:16.571Z,4.35
2019-04-26T15:44:57.558Z,4.65
2019-04-26T15:47:42.219Z,4.80
2019-04-26T15:50:22.083Z,3.70
2019-04-26T15:52:54.031Z,2.77
2019-04-26T15:55:25.891Z,6.20
2019-04-26T15:57:57.699Z,5.30
2019-04-26T16:00:32.736Z,5.62
2019-04-26T16:03:06.359Z,3.62
2019-04-26T16:05:36.203Z,6.40
2019-04-26T16:08:08.099Z,3.47
2019-04-26T16:10:39.142Z,4.30
2019-04-26T16:13:20.926Z,3.75
2019-04-26T16:15:48.597Z,8.15
2019-04-26T16:18:17.356Z,9.83
2019-04-26T16:20:53.183Z,32.73
2019-04-26T16:23:24.859Z,8.23
2019-04-26T16:25:56.527Z,4.65
2019-04-26T16:28:38.294Z,6.80
2019-04-26T16:31:18.446Z,8.05
2019-04-26T16:33:52.113Z,4.97
2019-04-26T16:36:24.168Z,3.50
2019-04-26T16:38:57.944Z,6.87
2019-04-26T16:41:33.880Z,5.00
2019-04-26T16:44:02.631Z,11.38
2019-04-26T16:46:34.371Z,5.87
2019-04-26T16:49:11.436Z,3.77
2019-04-26T16:51:39.063Z,3.58
2019-04-26T16:54:16.334Z,3.85
2019-04-26T16:56:44.056Z,4.25
2019-04-26T16:59:22.690Z,6.12
2019-04-26T17:01:49.109Z,5.47
2019-04-26T17:04:29.021Z,5.25
2019-04-26T17:06:53.056Z,5.35
2019-04-26T17:09:29.627Z,6.10
2019-04-26T17:11:58.084Z,14.80
2019-04-26T17:14:29.887Z,10.25
2019-04-26T17:17:03.218Z,6.15
2019-04-26T17:19:37.497Z,9.53
2019-04-26T17:22:40.027Z,8.03
2019-04-26T17:25:32.097Z,13.70
2019-04-26T17:28:04.161Z,10.75
2019-04-26T17:30:41.078Z,12.98
2019-04-26T17:33:08.927Z,9.73
2019-04-26T17:35:41.223Z,9.65
2019-04-26T17:38:13.745Z,18.87
2019-04-26T17:40:46.276Z,24.40
2019-04-26T17:43:18.351Z,13.53
2019-04-26T17:45:51.520Z,7.92
2019-04-26T17:48:23.339Z,5.97
2019-04-26T17:50:54.543Z,5.60
2019-04-26T17:53:30.815Z,4.35
2019-04-26T17:55:58.066Z,3.75
2019-04-26T17:58:32.414Z,4.22
2019-04-26T18:01:03.748Z,5.22
2019-04-26T18:03:35.182Z,4.95
2019-04-26T18:06:09.608Z,5.58
2019-04-26T18:08:46.027Z,5.35
2019-04-26T18:11:18.884Z,5.65
2019-04-26T18:13:47.258Z,5.25
2019-04-26T18:16:21.413Z,5.62
2019-04-26T18:19:09.836Z,5.90
2019-04-26T18:22:03.866Z,6.58
2019-04-26T18:24:35.791Z,5.58
2019-04-26T18:27:06.918Z,5.83
2019-04-26T18:29:37.991Z,5.33
2019-04-26T18:32:08.673Z,9.20
2019-04-26T18:34:40.621Z,10.85
2019-04-26T18:37:13.291Z,8.18
2019-04-26T18:39:44.483Z,38.73
2019-04-26T18:42:16.171Z,9.10
2019-04-26T18:44:48.819Z,6.70
2019-04-26T18:47:28.243Z,7.25
2019-04-26T18:49:59.431Z,6.08
2019-04-26T18:52:34.288Z,7.03
2019-04-26T18:55:26.211Z,10.82
2019-04-26T18:57:59.484Z,55.47
2019-04-26T19:00:38.222Z,108.72
2019-04-26T19:03:09.302Z,75.75
2019-04-26T19:05:40.027Z,46.88
2019-04-26T19:08:12.632Z,6.35
2019-04-26T19:10:43.645Z,6.37
2019-04-26T19:13:38.350Z,6.30
2019-04-26T19:16:46.371Z,31.37
2019-04-26T19:19:44.415Z,25.48
2019-04-26T19:22:35.508Z,12.47
2019-04-26T19:25:19.042Z,10.88
2019-04-26T19:27:49.388Z,9.23
2019-04-26T19:30:14.645Z,8.63
2019-04-26T19:32:45.837Z,8.23
2019-04-26T19:35:17.031Z,8.55
2019-04-26T19:37:48.913Z,8.00
2019-04-26T19:40:19.578Z,8.20
2019-04-26T19:42:55.417Z,8.35
2019-04-26T19:45:47.127Z,7.65
2019-04-26T19:48:36.869Z,8.08
2019-04-26T19:51:34.719Z,8.23
2019-04-26T19:54:16.556Z,7.03
2019-04-26T19:56:56.637Z,6.60
2019-04-26T19:59:33.032Z,7.47
2019-04-26T20:02:01.551Z,7.10
2019-04-26T20:04:34.251Z,6.47
2019-04-26T20:07:06.000Z,7.03
2019-04-26T20:09:37.655Z,7.12
2019-04-26T20:12:08.866Z,7.20
2019-04-26T20:14:49.166Z,6.93
2019-04-26T20:17:19.791Z,7.65
2019-04-26T20:19:47.922Z,9.00
2019-04-26T20:22:28.123Z,8.58
2019-04-26T20:24:57.446Z,9.40
2019-04-26T20:27:27.860Z,9.77
2019-04-26T20:29:58.523Z,8.88
2019-04-26T20:32:44.072Z,9.13
2019-04-26T20:35:19.603Z,8.90
2019-04-26T20:37:49.722Z,8.53
2019-04-26T20:40:25.026Z,8.30
2019-04-26T20:42:57.275Z,8.17
2019-04-26T20:45:38.401Z,8.33
2019-04-26T20:47:58.255Z,7.20
2019-04-26T20:50:35.267Z,7.43
2019-04-26T20:53:02.534Z,7.87
2019-04-26T20:55:35.464Z,8.20
2019-04-26T20:58:08.587Z,8.38
2019-04-26T21:00:39.339Z,8.30
2019-04-26T21:03:22.775Z,7.85
2019-04-26T21:05:46.322Z,8.20
2019-04-26T21:08:15.063Z,7.70
2019-04-26T21:10:46.247Z,7.87
2019-04-26T21:13:17.507Z,7.20
2019-04-26T21:15:57.973Z,7.77
2019-04-26T21:18:33.504Z,8.00
2019-04-26T21:21:05.966Z,8.13
2019-04-26T21:23:39.793Z,7.20
2019-04-26T21:26:32.205Z,7.50
2019-04-26T21:29:39.367Z,7.85
2019-04-26T21:32:41.627Z,8.23
2019-04-26T21:35:15.474Z,7.77
2019-04-26T21:37:53.958Z,8.73
2019-04-26T21:40:28.568Z,8.43
2019-04-26T21:43:00.741Z,7.60
2019-04-26T21:45:33.890Z,8.15
2019-04-26T21:48:06.946Z,7.90
2019-04-26T21:50:39.029Z,8.10
2019-04-26T21:53:10.220Z,8.17
2019-04-26T21:55:41.403Z,9.50
2019-04-26T21:58:14.174Z,9.10
2019-04-26T22:01:05.891Z,8.90
2019-04-26T22:03:37.443Z,8.87
2019-04-26T22:06:08.944Z,9.07
2019-04-26T22:08:49.840Z,9.23
2019-04-26T22:11:21.071Z,9.60
2019-04-26T22:14:05.894Z,9.37
2019-04-26T22:16:53.379Z,9.20
2019-04-26T22:19:59.871Z,8.73
2019-04-26T22:23:05.274Z,8.40
2019-04-26T22:25:38.463Z,9.00
2019-04-26T22:28:08.900Z,8.97
2019-04-26T22:30:39.759Z,8.43
2019-04-26T22:33:10.752Z,8.87
2019-04-26T22:35:43.190Z,9.23
2019-04-26T22:38:17.559Z,8.47
2019-04-26T22:40:48.569Z,9.23
2019-04-26T22:43:44.034Z,9.87
2019-04-26T22:46:44.412Z,8.57
2019-04-26T22:49:06.040Z,9.33
2019-04-26T22:51:37.315Z,9.23
2019-04-26T22:54:08.441Z,9.53
2019-04-26T22:56:39.491Z,9.03
2019-04-26T22:59:10.755Z,8.73
2019-04-26T23:01:44.603Z,9.33
2019-04-26T23:04:22.676Z,9.90
2019-04-26T23:06:49.191Z,9.30
2019-04-26T23:09:20.811Z,10.67
2019-04-26T23:12:03.661Z,9.53
2019-04-26T23:14:59.491Z,9.73
2019-04-26T23:17:44.507Z,10.03
2019-04-26T23:20:20.056Z,9.80
2019-04-26T23:22:52.859Z,9.93
2019-04-26T23:25:23.838Z,10.80
2019-04-26T23:27:58.193Z,9.50
2019-04-26T23:30:31.513Z,10.17
2019-04-26T23:32:59.863Z,9.70
2019-04-26T23:35:37.511Z,9.73
2019-04-26T23:38:05.439Z,10.33
2019-04-26T23:40:36.647Z,10.40
2019-04-26T23:43:07.859Z,9.20
2019-04-26T23:45:47.108Z,9.60
2019-04-26T23:48:12.420Z,9.47
2019-04-26T23:50:44.648Z,10.47
2019-04-26T23:53:15.056Z,9.83
2019-04-26T23:55:46.079Z,9.70
2019-04-26T23:58:16.519Z,9.90
